Aeroporto :
LOGIN :

Iscrizione | Disclaimer

   EN    FR    IT 

 










Sommario :    VFR   VFR Marginale   IFR   IFR Intensivo   IFR Molto Intensivo
Visibilità : 
Base nubi : 
>= 8 km
>= 3000ft
5 / 8 km
1000 / 3000 ft
1500m / 5 km
500 / 1000 ft
800 / 1500m
200 / 500 ft
< 800m
< 200 ft
Simboli :   Temporali  Nebbia  Neve Forte  Precipitazioni Forti  Vento > 20 kt
SIGMETs :   Varie  Temporali  Ghiacco  Turbolenza  Onda orograficha  Ceneri Vulcaniche






- Altitudine del aeroporto : 13 ft
- Codice IATA : GOA


LIMJ - Genoa Cristoforo Colombo

ULTIMO METAR :
  • 272050Z 02004KT 9999 FEW023 10/06 Q1004

METARs OBSOLETI :
  • 272020Z 02007KT 9999 FEW021 11/07 Q1003
  • 271950Z 04007KT 010V070 9999 FEW020 10/06 Q1003
  • 271920Z 04007KT 9999 SCT020 10/05 Q1003
  • 271850Z 04008KT 9999 FEW018 10/06 Q1003
  • 271820Z 04006KT 9999 FEW018 10/06 Q1004
  • 271750Z VRB03KT 9999 SCT018 11/06 Q1004

TAF TAF LIMJ
Valido dal 27 a 18 ore il 28 a 18 ore UTC


271700Z 2718/2818 24015KT 9999 SCT030 BKN060
BECMG 2719/2721 36010KT
BECMG 2808/2810 VRB05KT



MetMap, La meteo Aeronautica in un colpo d'occhio ! - Copyright ORBIFLY Dicembre 2007 - Disclaimer

ORBIFLY MET'MAP TEAM :

Programmazione e sviluppo : Alexandra Zaïnal
Concezione : Baudouin d'Aumeries
Aiuto per la programmazione : Marc-Olivier Méhu
Supporto tecnico e logistico : Manuel Goepfert
Aiuto per la traduzione : Arnaldo La Scala

Contatto : metmap@orbifly.com




FONTI E CREDITI :

   NOAA